createdAt,value
2019-03-19T00:00:04.726Z,1.30
2019-03-19T00:05:11.458Z,1.30
2019-03-19T00:10:17.085Z,1.80
2019-03-19T00:15:24.851Z,1.50
2019-03-19T00:20:31.366Z,1.27
2019-03-19T00:25:37.895Z,1.30
2019-03-19T00:30:42.648Z,1.50
2019-03-19T00:35:47.461Z,1.27
2019-03-19T00:40:55.429Z,1.43
2019-03-19T00:46:00.558Z,1.30
2019-03-19T00:51:05.418Z,1.37
2019-03-19T00:56:11.989Z,1.30
2019-03-19T01:01:18.022Z,1.67
2019-03-19T01:06:22.930Z,1.27
2019-03-19T01:11:30.111Z,1.33
2019-03-19T01:16:36.792Z,1.50
2019-03-19T01:21:41.583Z,1.50
2019-03-19T01:26:49.608Z,1.50
2019-03-19T01:31:56.925Z,1.30
2019-03-19T01:37:01.641Z,1.57
2019-03-19T01:42:07.609Z,1.60
2019-03-19T01:47:12.630Z,1.57
2019-03-19T01:52:18.574Z,1.40
2019-03-19T01:57:24.262Z,1.97
2019-03-19T02:02:29.053Z,1.40
2019-03-19T02:07:33.726Z,1.60
2019-03-19T02:12:38.484Z,1.40
2019-03-19T02:17:44.717Z,1.53
2019-03-19T02:22:52.970Z,1.50
2019-03-19T02:27:57.687Z,1.50
2019-03-19T02:33:02.515Z,1.53
2019-03-19T02:38:07.938Z,1.43
2019-03-19T02:43:12.676Z,1.43
2019-03-19T02:48:17.740Z,1.60
2019-03-19T02:53:22.493Z,1.70
2019-03-19T02:58:27.253Z,1.47
2019-03-19T03:03:32.233Z,1.57
2019-03-19T03:08:38.957Z,1.70
2019-03-19T03:13:43.630Z,1.30
2019-03-19T03:18:48.639Z,2.47
2019-03-19T03:23:53.305Z,1.37
2019-03-19T03:29:04.393Z,1.50
2019-03-19T03:34:05.751Z,1.70
2019-03-19T03:39:10.500Z,1.53
2019-03-19T03:44:15.196Z,1.60
2019-03-19T03:49:19.853Z,2.00
2019-03-19T03:54:25.785Z,1.53
2019-03-19T03:59:30.504Z,1.73
2019-03-19T04:04:35.581Z,1.87
2019-03-19T04:09:41.894Z,1.30
2019-03-19T04:14:47.038Z,1.40
2019-03-19T04:19:52.293Z,1.53
2019-03-19T04:24:57.134Z,1.80
2019-03-19T04:30:01.954Z,1.53
2019-03-19T04:35:07.533Z,2.03
2019-03-19T04:40:13.583Z,2.33
2019-03-19T04:45:18.900Z,2.47
2019-03-19T04:50:23.689Z,1.93
2019-03-19T04:55:29.351Z,2.23
2019-03-19T05:00:34.605Z,2.37
2019-03-19T05:05:39.372Z,2.23
2019-03-19T05:10:44.292Z,2.30
2019-03-19T05:15:49.229Z,3.77
2019-03-19T05:20:55.210Z,2.73
2019-03-19T05:26:00.168Z,2.53
2019-03-19T05:31:06.852Z,2.40
2019-03-19T05:36:13.039Z,2.20
2019-03-19T05:41:20.652Z,1.70
2019-03-19T05:46:26.048Z,2.27
2019-03-19T05:51:31.065Z,3.03
2019-03-19T05:56:36.776Z,2.50
2019-03-19T06:01:41.721Z,2.20
2019-03-19T06:06:47.232Z,1.43
2019-03-19T06:11:54.376Z,2.20
2019-03-19T06:16:59.041Z,2.30
2019-03-19T06:22:05.198Z,2.30
2019-03-19T06:27:10.154Z,2.20
2019-03-19T06:32:15.130Z,2.40
2019-03-19T06:37:22.149Z,2.50
2019-03-19T06:42:28.347Z,2.33
2019-03-19T06:47:54.578Z,2.27
2019-03-19T06:53:08.337Z,2.43
2019-03-19T06:58:13.013Z,2.23
2019-03-19T07:03:19.565Z,2.20
2019-03-19T07:08:26.116Z,2.30
2019-03-19T07:13:31.142Z,2.30
2019-03-19T07:18:36.807Z,2.07
2019-03-19T07:23:41.526Z,2.13
2019-03-19T07:28:46.202Z,3.53
2019-03-19T07:33:51.240Z,3.73
2019-03-19T07:38:57.168Z,2.97
2019-03-19T07:44:05.453Z,3.10
2019-03-19T07:49:11.489Z,3.23
2019-03-19T07:54:19.755Z,2.77
2019-03-19T07:59:25.307Z,2.83
2019-03-19T08:04:30.250Z,3.07
2019-03-19T08:09:35.273Z,3.20
2019-03-19T08:14:39.998Z,3.77
2019-03-19T08:19:45.513Z,2.90
2019-03-19T08:24:50.448Z,3.07
2019-03-19T08:29:56.118Z,3.53
2019-03-19T08:35:01.413Z,3.23
2019-03-19T08:40:07.801Z,3.47
2019-03-19T08:45:14.880Z,3.30
2019-03-19T08:50:19.845Z,3.70
2019-03-19T08:55:24.497Z,3.20
2019-03-19T09:00:30.097Z,3.07
2019-03-19T09:05:35.018Z,3.10
2019-03-19T09:10:39.744Z,2.13
2019-03-19T09:15:44.525Z,2.87
2019-03-19T09:20:49.233Z,2.17
2019-03-19T09:25:57.397Z,1.83
2019-03-19T09:31:06.221Z,1.90
2019-03-19T09:36:11.023Z,2.60
2019-03-19T09:41:15.715Z,2.20
2019-03-19T09:46:20.439Z,1.93
2019-03-19T09:51:25.404Z,1.77
2019-03-19T09:56:31.047Z,1.67
2019-03-19T10:01:37.809Z,1.83
2019-03-19T10:06:42.609Z,2.13
2019-03-19T10:11:47.619Z,2.00
2019-03-19T10:16:53.581Z,1.73
2019-03-19T10:21:58.630Z,1.73
2019-03-19T10:27:03.582Z,1.50
2019-03-19T10:32:08.549Z,1.50
2019-03-19T10:37:14.495Z,1.50
2019-03-19T10:42:19.429Z,1.40
2019-03-19T10:47:31.451Z,1.43
2019-03-19T10:52:39.150Z,1.60
2019-03-19T10:57:45.645Z,1.90
2019-03-19T11:02:50.555Z,1.57
2019-03-19T11:07:56.135Z,1.90
2019-03-19T11:13:00.906Z,1.80
2019-03-19T11:18:06.794Z,1.50
2019-03-19T11:23:11.735Z,1.50
2019-03-19T11:28:18.050Z,1.37
2019-03-19T11:33:24.167Z,1.53
2019-03-19T11:38:29.477Z,1.57
2019-03-19T11:43:34.848Z,1.40
2019-03-19T11:48:41.330Z,1.83
2019-03-19T11:53:46.576Z,1.63
2019-03-19T11:58:52.935Z,2.20
2019-03-19T12:03:59.254Z,1.50
2019-03-19T12:09:04.877Z,1.63
2019-03-19T12:14:09.610Z,1.60
2019-03-19T12:19:16.336Z,1.43
2019-03-19T12:24:21.134Z,1.80
2019-03-19T12:29:26.085Z,1.60
2019-03-19T12:34:31.234Z,1.40
2019-03-19T12:39:40.110Z,1.60
2019-03-19T12:44:45.395Z,1.60
2019-03-19T12:49:50.527Z,1.30
2019-03-19T12:54:56.250Z,1.43
2019-03-19T13:00:02.091Z,1.40
2019-03-19T13:05:07.575Z,1.60
2019-03-19T13:10:17.557Z,1.30
2019-03-19T13:15:23.434Z,1.43
2019-03-19T13:20:36.025Z,1.50
2019-03-19T13:25:41.482Z,1.50
2019-03-19T13:30:48.160Z,1.90
2019-03-19T13:35:53.172Z,1.70
2019-03-19T13:40:59.434Z,1.53
2019-03-19T13:46:06.719Z,1.30
2019-03-19T13:51:11.731Z,1.60
2019-03-19T13:56:16.984Z,1.20
2019-03-19T14:01:22.797Z,1.50
2019-03-19T14:06:27.796Z,1.40
2019-03-19T14:11:34.362Z,1.17
2019-03-19T14:16:39.113Z,1.67
2019-03-19T14:21:43.934Z,1.50
2019-03-19T14:26:59.215Z,1.60
2019-03-19T14:32:04.187Z,1.93
2019-03-19T14:37:09.482Z,1.30
2019-03-19T14:42:16.276Z,1.70
2019-03-19T14:47:21.282Z,1.30
2019-03-19T14:52:39.048Z,1.30
2019-03-19T14:57:43.839Z,1.50
2019-03-19T15:02:48.665Z,1.40
2019-03-19T15:08:00.272Z,2.00
2019-03-19T15:13:05.514Z,1.57
2019-03-19T15:18:10.714Z,1.40
2019-03-19T15:23:17.055Z,1.13
2019-03-19T15:28:21.929Z,1.50
2019-03-19T15:33:28.406Z,1.13
2019-03-19T15:38:36.461Z,0.90
2019-03-19T15:43:41.762Z,1.23
2019-03-19T15:48:50.962Z,1.30
2019-03-19T15:53:55.640Z,1.20
2019-03-19T15:59:00.394Z,1.27
2019-03-19T16:04:05.483Z,0.90
2019-03-19T16:09:10.399Z,1.20
2019-03-19T16:14:15.138Z,1.60
2019-03-19T16:19:19.921Z,1.40
2019-03-19T16:24:26.566Z,1.20
2019-03-19T16:29:33.150Z,1.27
2019-03-19T16:34:43.438Z,1.10
2019-03-19T16:39:48.445Z,1.10
2019-03-19T16:44:53.315Z,1.10
2019-03-19T16:49:59.778Z,1.10
2019-03-19T16:55:05.076Z,1.50
2019-03-19T17:00:15.716Z,1.10
2019-03-19T18:19:38.267Z,1.27
2019-03-19T18:24:43.566Z,0.97
2019-03-19T18:29:56.044Z,0.97
2019-03-19T18:46:33.071Z,1.00
2019-03-19T18:51:37.937Z,0.97
2019-03-19T18:56:43.043Z,1.30
2019-03-19T19:01:50.065Z,1.33
2019-03-19T19:06:56.084Z,1.93
2019-03-19T19:12:01.068Z,1.40
2019-03-19T19:17:06.189Z,1.10
2019-03-19T19:22:12.279Z,1.60
2019-03-19T19:27:17.972Z,1.50
2019-03-19T19:32:23.091Z,0.93
2019-03-19T19:37:27.781Z,1.80
2019-03-19T19:42:34.206Z,1.40
2019-03-19T19:47:42.317Z,2.00
2019-03-19T19:52:51.619Z,1.20
2019-03-19T19:57:57.511Z,1.00
2019-03-19T20:03:12.130Z,1.20
2019-03-19T20:08:12.499Z,1.10
2019-03-19T20:13:18.346Z,1.43
2019-03-19T20:18:24.589Z,0.87
2019-03-19T20:23:29.522Z,1.07
2019-03-19T20:28:35.782Z,1.20
2019-03-19T20:33:41.553Z,0.90
2019-03-19T20:38:48.088Z,1.50
2019-03-19T20:43:54.724Z,1.33
2019-03-19T20:48:59.642Z,1.00
2019-03-19T20:54:04.971Z,1.07
2019-03-19T20:59:10.037Z,1.13
2019-03-19T21:04:15.257Z,1.90
2019-03-19T21:09:20.142Z,1.40
2019-03-19T21:14:25.025Z,2.37
2019-03-19T21:19:29.977Z,1.80
2019-03-19T21:24:36.849Z,1.67
2019-03-19T21:29:41.760Z,1.60
2019-03-19T21:34:46.814Z,1.67
2019-03-19T21:39:52.161Z,1.43
2019-03-19T21:44:57.277Z,1.57
2019-03-19T21:50:03.887Z,1.90
2019-03-19T21:55:14.782Z,1.80
2019-03-19T22:00:19.753Z,1.30
2019-03-19T22:05:25.869Z,1.30
2019-03-19T22:10:32.190Z,1.47
2019-03-19T22:15:37.772Z,1.17
2019-03-19T22:20:42.849Z,1.40
2019-03-19T22:25:47.691Z,1.57
2019-03-19T22:30:52.341Z,1.70
2019-03-19T22:35:59.822Z,1.37
2019-03-19T22:41:04.565Z,1.60
2019-03-19T22:46:09.589Z,1.93
2019-03-19T22:51:14.367Z,2.03
2019-03-19T22:56:19.669Z,1.70
2019-03-19T23:01:27.079Z,1.87
2019-03-19T23:06:32.259Z,1.77
2019-03-19T23:11:38.151Z,1.77
2019-03-19T23:16:43.391Z,1.20
2019-03-19T23:21:49.099Z,1.23
2019-03-19T23:26:54.354Z,1.20
2019-03-19T23:32:00.377Z,1.50
2019-03-19T23:37:05.409Z,1.20
2019-03-19T23:42:10.192Z,1.37
2019-03-19T23:47:15.526Z,1.43
2019-03-19T23:52:21.835Z,2.10
2019-03-19T23:57:26.653Z,1.30
